createdAt,value
2019-06-01T00:00:27.991Z,3.02
2019-06-01T00:05:30.266Z,2.77
2019-06-01T00:10:32.555Z,2.62
2019-06-01T00:15:34.801Z,2.77
2019-06-01T00:20:37.118Z,2.90
2019-06-01T00:25:40.415Z,3.12
2019-06-01T00:30:43.643Z,2.80
2019-06-01T00:35:46.021Z,3.00
2019-06-01T00:40:48.316Z,3.10
2019-06-01T00:45:50.864Z,2.85
2019-06-01T00:50:53.347Z,3.00
2019-06-01T00:55:55.634Z,2.85
2019-06-01T01:00:57.900Z,2.98
2019-06-01T01:06:00.334Z,3.08
2019-06-01T01:11:02.718Z,3.08
2019-06-01T01:16:05.048Z,3.10
2019-06-01T01:21:07.355Z,2.90
2019-06-01T01:26:09.629Z,3.20
2019-06-01T01:31:14.204Z,2.90
2019-06-01T01:36:15.959Z,2.80
2019-06-01T01:41:18.535Z,3.00
2019-06-01T01:46:20.880Z,3.37
2019-06-01T01:51:23.139Z,3.00
2019-06-01T01:56:33.390Z,2.80
2019-06-01T02:01:35.659Z,3.10
2019-06-01T02:06:38.005Z,3.27
2019-06-01T02:11:40.368Z,3.15
2019-06-01T02:16:42.671Z,3.05
2019-06-01T02:21:44.938Z,3.00
2019-06-01T02:26:47.548Z,2.80
2019-06-01T02:31:49.821Z,3.08
2019-06-01T02:36:52.160Z,3.33
2019-06-01T02:41:54.942Z,3.25
2019-06-01T02:46:57.370Z,3.10
2019-06-01T02:51:59.640Z,3.37
2019-06-01T02:57:02.174Z,3.98
2019-06-01T03:02:08.776Z,3.20
2019-06-01T03:07:09.229Z,3.00
2019-06-01T03:12:12.740Z,2.87
2019-06-01T03:17:15.797Z,3.27
2019-06-01T03:22:19.356Z,3.30
2019-06-01T03:27:22.561Z,3.33
2019-06-01T03:32:36.308Z,2.80
2019-06-01T03:37:29.413Z,3.47
2019-06-01T03:42:31.783Z,3.47
2019-06-01T03:47:34.066Z,2.93
2019-06-01T03:52:40.165Z,3.20
2019-06-01T03:57:51.035Z,3.00
2019-06-01T04:02:53.323Z,3.30
2019-06-01T04:07:55.675Z,3.50
2019-06-01T04:12:57.982Z,3.60
2019-06-01T04:18:00.246Z,3.20
2019-06-01T04:23:04.458Z,3.67
2019-06-01T04:28:08.269Z,3.60
2019-06-01T04:33:11.053Z,4.60
2019-06-01T04:38:13.479Z,6.10
2019-06-01T04:43:15.720Z,3.87
2019-06-01T04:48:17.993Z,3.90
2019-06-01T04:53:20.293Z,3.22
2019-06-01T04:58:22.985Z,3.30
2019-06-01T05:03:25.252Z,2.80
2019-06-01T05:08:27.514Z,3.27
2019-06-01T05:13:29.831Z,2.83
2019-06-01T05:18:33.389Z,2.72
2019-06-01T05:23:35.691Z,2.95
2019-06-01T05:28:38.063Z,2.70
2019-06-01T05:33:40.343Z,2.50
2019-06-01T05:38:42.649Z,2.40
2019-06-01T05:43:44.933Z,2.65
2019-06-01T05:48:47.189Z,3.10
2019-06-01T05:53:49.588Z,2.75
2019-06-01T05:58:51.841Z,2.73
2019-06-01T06:03:54.114Z,2.80
2019-06-01T06:08:56.390Z,2.77
2019-06-01T06:13:58.842Z,3.00
2019-06-01T06:19:01.227Z,2.50
2019-06-01T06:24:03.876Z,2.10
2019-06-01T06:29:06.174Z,2.40
2019-06-01T06:34:08.465Z,2.40
2019-06-01T06:39:11.004Z,1.77
2019-06-01T06:44:14.345Z,1.55
2019-06-01T06:49:17.056Z,2.17
2019-06-01T06:54:20.021Z,1.96
2019-06-01T06:59:22.509Z,1.70
2019-06-01T07:04:25.306Z,2.45
2019-06-01T07:09:28.321Z,5.42
2019-06-01T07:14:31.672Z,2.00
2019-06-01T07:19:34.160Z,1.80
2019-06-01T07:24:36.433Z,1.57
2019-06-01T07:29:38.719Z,1.80
2019-06-01T07:34:42.701Z,2.35
2019-06-01T07:39:45.098Z,2.08
2019-06-01T07:44:47.731Z,1.70
2019-06-01T07:49:50.056Z,1.45
2019-06-01T07:54:52.325Z,1.55
2019-06-01T07:59:54.612Z,1.80
2019-06-01T08:04:56.880Z,2.10
2019-06-01T08:09:59.311Z,1.57
2019-06-01T08:15:01.641Z,1.57
2019-06-01T08:20:06.808Z,1.90
2019-06-01T08:25:09.256Z,1.80
2019-06-01T08:30:11.925Z,1.40
2019-06-01T08:35:14.570Z,1.40
2019-06-01T08:40:16.934Z,1.52
2019-06-01T08:45:19.333Z,1.42
2019-06-01T08:50:22.004Z,1.72
2019-06-01T08:55:24.284Z,1.47
2019-06-01T09:00:26.593Z,1.50
2019-06-01T09:05:29.977Z,1.67
2019-06-01T09:10:33.265Z,1.30
2019-06-01T09:15:36.045Z,1.27
2019-06-01T09:20:38.992Z,1.57
2019-06-01T09:25:41.409Z,1.50
2019-06-01T09:30:43.980Z,1.20
2019-06-01T09:35:55.485Z,2.70
2019-06-01T09:40:50.372Z,1.30
2019-06-01T09:45:53.469Z,1.35
2019-06-01T09:50:56.432Z,1.05
2019-06-01T09:55:58.804Z,1.55
2019-06-01T10:01:01.140Z,1.17
2019-06-01T10:06:03.659Z,1.20
2019-06-01T10:11:06.006Z,1.20
2019-06-01T10:16:08.604Z,1.10
2019-06-01T10:21:10.857Z,1.37
2019-06-01T10:26:13.108Z,1.10
2019-06-01T10:31:15.413Z,1.20
2019-06-01T10:36:21.005Z,1.27
2019-06-01T10:41:21.730Z,1.55
2019-06-01T10:46:24.531Z,1.50
2019-06-01T10:51:26.824Z,1.90
2019-06-01T10:56:29.151Z,1.20
2019-06-01T11:01:33.808Z,0.90
2019-06-01T11:06:42.140Z,1.02
2019-06-01T11:11:39.548Z,1.10
2019-06-01T11:16:43.267Z,1.30
2019-06-01T11:21:45.946Z,1.22
2019-06-01T11:26:48.273Z,1.30
2019-06-01T11:31:50.578Z,1.12
2019-06-01T11:37:04.364Z,0.98
2019-06-01T11:41:57.310Z,1.07
2019-06-01T11:46:59.627Z,1.12
2019-06-01T11:52:01.967Z,1.50
2019-06-01T11:57:04.313Z,1.10
2019-06-01T12:02:06.970Z,1.50
2019-06-01T12:07:17.514Z,1.30
2019-06-01T12:12:13.331Z,1.20
2019-06-01T12:17:15.763Z,1.20
2019-06-01T12:22:18.198Z,1.10
2019-06-01T12:27:20.565Z,1.00
2019-06-01T12:32:22.967Z,1.10
2019-06-01T12:37:39.897Z,1.50
2019-06-01T12:42:29.756Z,1.02
2019-06-01T12:47:32.327Z,0.95
2019-06-01T12:52:34.700Z,0.90
2019-06-01T12:57:36.994Z,1.02
2019-06-01T13:02:40.199Z,1.05
2019-06-01T13:07:55.203Z,1.00
2019-06-01T13:12:47.296Z,1.00
2019-06-01T13:17:49.648Z,2.30
2019-06-01T13:22:52.079Z,1.10
2019-06-01T13:27:54.411Z,1.20
2019-06-01T13:32:56.712Z,0.97
2019-06-01T13:38:11.618Z,1.25
2019-06-01T13:43:03.111Z,1.17
2019-06-01T13:48:05.545Z,1.20
2019-06-01T13:53:08.273Z,1.15
2019-06-01T13:58:10.568Z,1.10
2019-06-01T14:03:12.841Z,1.65
2019-06-01T14:08:28.568Z,1.35
2019-06-01T14:13:19.261Z,1.20
2019-06-01T14:18:21.614Z,1.27
2019-06-01T14:23:23.958Z,1.15
2019-06-01T14:28:26.585Z,1.20
2019-06-01T14:33:29.000Z,1.15
2019-06-01T14:38:45.955Z,1.40
2019-06-01T14:43:35.765Z,1.30
2019-06-01T14:48:38.070Z,1.00
2019-06-01T14:53:40.608Z,1.00
2019-06-01T14:58:43.227Z,1.20
2019-06-01T15:03:45.602Z,1.10
2019-06-01T15:09:09.280Z,1.57
2019-06-01T15:13:52.335Z,1.30
2019-06-01T15:18:55.937Z,1.20
2019-06-01T15:23:59.029Z,1.20
2019-06-01T15:29:01.284Z,1.32
2019-06-01T15:34:03.640Z,1.20
2019-06-01T15:39:21.014Z,1.30
2019-06-01T15:44:10.785Z,1.17
2019-06-01T15:49:13.102Z,1.25
2019-06-01T15:54:15.448Z,1.92
2019-06-01T15:59:17.787Z,1.30
2019-06-01T16:04:20.142Z,1.25
2019-06-01T16:09:22.512Z,1.30
2019-06-01T16:14:24.873Z,1.30
2019-06-01T16:19:27.150Z,1.05
2019-06-01T16:24:30.744Z,1.30
2019-06-01T16:29:35.433Z,2.02
2019-06-01T16:34:37.724Z,1.30
2019-06-01T16:39:40.008Z,1.40
2019-06-01T16:44:42.309Z,1.37
2019-06-01T16:49:44.655Z,1.30
2019-06-01T16:54:46.979Z,1.62
2019-06-01T16:59:49.394Z,1.30
2019-06-01T17:04:52.002Z,1.10
2019-06-01T17:09:54.284Z,1.42
2019-06-01T17:14:56.835Z,1.45
2019-06-01T17:19:59.194Z,1.07
2019-06-01T17:25:01.836Z,1.10
2019-06-01T17:30:08.196Z,0.93
2019-06-01T17:35:09.186Z,1.23
2019-06-01T17:40:12.485Z,1.50
2019-06-01T17:45:15.139Z,1.25
2019-06-01T17:50:19.005Z,1.40
2019-06-01T17:55:25.828Z,1.52
2019-06-01T18:00:28.159Z,1.70
2019-06-01T18:05:30.508Z,1.57
2019-06-01T18:10:33.481Z,1.50
2019-06-01T18:15:35.848Z,1.27
2019-06-01T18:20:38.206Z,1.62
2019-06-01T18:25:40.635Z,1.52
2019-06-01T18:30:42.903Z,1.35
2019-06-01T18:35:45.545Z,1.30
2019-06-01T18:40:48.269Z,1.20
2019-06-01T18:45:50.810Z,1.30
2019-06-01T18:50:54.122Z,2.25
2019-06-01T18:55:56.748Z,2.05
2019-06-01T19:00:59.159Z,2.02
2019-06-01T19:06:01.485Z,2.30
2019-06-01T19:11:05.569Z,2.00
2019-06-01T19:16:08.179Z,2.87
2019-06-01T19:21:10.933Z,3.60
2019-06-01T19:26:15.365Z,1.90
2019-06-01T19:31:17.704Z,2.30
2019-06-01T19:36:20.486Z,1.77
2019-06-01T19:41:22.758Z,3.47
2019-06-01T19:46:25.084Z,2.33
2019-06-01T19:51:27.533Z,2.67
2019-06-01T19:56:29.807Z,2.62
2019-06-01T20:01:32.557Z,2.45
2019-06-01T20:06:35.253Z,2.58
2019-06-01T20:11:37.637Z,2.25
2019-06-01T20:16:40.038Z,2.20
2019-06-01T20:21:42.897Z,2.44
2019-06-01T20:26:49.172Z,1.90
2019-06-01T20:31:49.343Z,1.90
2019-06-01T20:36:51.619Z,2.12
2019-06-01T20:41:54.038Z,2.20
2019-06-01T20:46:56.373Z,2.50
2019-06-01T20:51:58.661Z,2.80
2019-06-01T20:57:00.976Z,3.10
2019-06-01T21:02:03.648Z,2.77
2019-06-01T21:07:05.992Z,3.02
2019-06-01T21:12:08.270Z,3.30
2019-06-01T21:17:10.598Z,3.02
2019-06-01T21:22:14.474Z,2.70
2019-06-01T21:27:16.864Z,2.52
2019-06-01T21:32:19.301Z,2.90
2019-06-01T21:37:21.707Z,2.87
2019-06-01T21:42:24.125Z,2.90
2019-06-01T21:47:26.481Z,3.52
2019-06-01T21:52:28.792Z,3.00
2019-06-01T21:57:31.064Z,3.17
2019-06-01T22:02:33.478Z,2.75
2019-06-01T22:07:35.746Z,3.20
2019-06-01T22:12:38.087Z,3.10
2019-06-01T22:17:40.443Z,4.37
2019-06-01T22:22:42.732Z,3.10
2019-06-01T22:27:45.038Z,2.65
2019-06-01T22:32:47.589Z,3.15
2019-06-01T22:37:49.949Z,2.70
2019-06-01T22:42:52.250Z,2.30
2019-06-01T22:47:54.588Z,2.95
2019-06-01T22:52:56.869Z,2.95
2019-06-01T22:57:59.432Z,3.05
2019-06-01T23:03:01.758Z,3.00
2019-06-01T23:08:04.104Z,2.90
2019-06-01T23:13:06.399Z,3.30
2019-06-01T23:18:08.732Z,3.20
2019-06-01T23:23:11.003Z,3.17
2019-06-01T23:28:13.332Z,3.00
2019-06-01T23:33:15.624Z,3.40
2019-06-01T23:38:17.992Z,3.05
2019-06-01T23:43:20.267Z,3.62
2019-06-01T23:48:23.142Z,3.30
2019-06-01T23:53:25.468Z,3.22
2019-06-01T23:58:28.051Z,3.50
